createdAt,value
2024-01-28T00:00:26.542Z,18.25
2024-01-28T00:02:56.921Z,26.00
2024-01-28T00:05:27.152Z,21.50
2024-01-28T00:07:57.289Z,31.00
2024-01-28T00:10:27.421Z,29.50
2024-01-28T00:12:57.664Z,23.25
2024-01-28T00:15:28.033Z,24.75
2024-01-28T00:17:58.183Z,21.75
2024-01-28T00:20:28.435Z,28.75
2024-01-28T00:22:58.540Z,24.00
2024-01-28T00:25:28.641Z,24.75
2024-01-28T00:27:58.795Z,19.00
2024-01-28T00:30:29.273Z,21.00
2024-01-28T00:32:59.835Z,22.75
2024-01-28T00:35:30.174Z,22.50
2024-01-28T00:38:00.405Z,21.25
2024-01-28T00:40:30.717Z,24.75
2024-01-28T00:43:00.824Z,19.00
2024-01-28T00:45:31.359Z,18.00
2024-01-28T00:48:01.583Z,23.25
2024-01-28T00:50:32.139Z,23.75
2024-01-28T00:53:02.237Z,21.50
2024-01-28T00:55:32.678Z,22.25
2024-01-28T00:58:03.014Z,18.00
2024-01-28T01:00:33.472Z,24.00
2024-01-28T01:03:04.437Z,23.25
2024-01-28T01:05:34.951Z,22.50
2024-01-28T01:08:05.517Z,15.75
2024-01-28T01:10:35.819Z,17.75
2024-01-28T01:13:06.154Z,19.75
2024-01-28T01:15:36.494Z,24.00
2024-01-28T01:18:06.911Z,25.50
2024-01-28T01:20:37.222Z,17.75
2024-01-28T01:23:07.632Z,20.75
2024-01-28T01:25:37.806Z,20.75
2024-01-28T01:28:08.053Z,22.50
2024-01-28T01:30:38.437Z,24.50
2024-01-28T01:33:09.441Z,18.75
2024-01-28T01:35:39.716Z,24.50
2024-01-28T01:38:09.827Z,29.75
2024-01-28T01:40:39.858Z,21.25
2024-01-28T01:43:16.702Z,18.75
2024-01-28T01:45:47.917Z,25.50
2024-01-28T01:48:19.488Z,30.25
2024-01-28T01:50:50.774Z,25.25
2024-01-28T01:53:21.200Z,21.75
2024-01-28T01:55:51.528Z,21.25
2024-01-28T01:58:21.788Z,25.75
2024-01-28T02:00:52.590Z,22.00
2024-01-28T02:03:22.873Z,20.50
2024-01-28T02:05:53.062Z,21.50
2024-01-28T02:08:23.259Z,24.00
2024-01-28T02:10:54.733Z,26.25
2024-01-28T02:13:24.828Z,19.25
2024-01-28T02:15:54.921Z,17.00
2024-01-28T02:18:25.619Z,13.75
2024-01-28T02:20:55.914Z,23.25
2024-01-28T02:23:26.049Z,23.25
2024-01-28T02:25:56.213Z,25.50
2024-01-28T02:28:26.504Z,22.50
2024-01-28T02:30:56.666Z,20.25
2024-01-28T02:33:27.124Z,21.75
2024-01-28T02:35:57.663Z,23.75
2024-01-28T02:38:27.772Z,20.00
2024-01-28T02:40:57.884Z,18.50
2024-01-28T02:43:28.175Z,23.50
2024-01-28T02:45:58.486Z,21.75
2024-01-28T02:48:28.913Z,24.00
2024-01-28T02:50:59.048Z,18.75
2024-01-28T02:53:29.168Z,18.50
2024-01-28T02:55:59.218Z,20.75
2024-01-28T02:58:29.646Z,17.50
2024-01-28T03:01:00.058Z,17.25
2024-01-28T03:03:30.607Z,13.50
2024-01-28T03:06:00.838Z,17.00
2024-01-28T03:08:30.981Z,15.50
2024-01-28T03:11:01.306Z,10.50
2024-01-28T03:13:31.597Z,18.00
2024-01-28T03:16:02.081Z,15.00
2024-01-28T03:18:32.713Z,16.00
2024-01-28T03:21:02.819Z,15.75
2024-01-28T03:23:32.915Z,19.50
2024-01-28T03:26:03.030Z,16.50
2024-01-28T03:28:33.364Z,22.00
2024-01-28T03:31:03.773Z,16.50
2024-01-28T03:33:34.573Z,13.25
2024-01-28T03:36:05.208Z,16.50
2024-01-28T03:38:35.441Z,20.50
2024-01-28T03:41:05.646Z,20.00
2024-01-28T03:43:35.787Z,15.25
2024-01-28T03:46:10.232Z,23.25
2024-01-28T03:48:40.441Z,18.25
2024-01-28T03:51:10.638Z,19.75
2024-01-28T03:53:40.816Z,23.25
2024-01-28T03:56:11.059Z,25.00
2024-01-28T03:58:41.349Z,22.00
2024-01-28T04:01:11.522Z,27.75
2024-01-28T04:03:42.023Z,31.00
2024-01-28T04:06:12.174Z,21.25
2024-01-28T04:08:42.397Z,28.00
2024-01-28T04:11:12.523Z,34.75
2024-01-28T04:13:42.689Z,27.00
2024-01-28T04:16:12.803Z,21.75
2024-01-28T04:18:44.698Z,27.50
2024-01-28T04:21:15.285Z,24.50
2024-01-28T04:23:45.520Z,22.50
2024-01-28T04:26:15.761Z,27.50
2024-01-28T04:28:45.990Z,25.00
2024-01-28T04:31:16.092Z,23.50
2024-01-28T04:33:46.369Z,30.50
2024-01-28T04:36:16.583Z,21.75
2024-01-28T04:38:46.720Z,28.00
2024-01-28T04:41:16.903Z,23.25
2024-01-28T04:43:47.078Z,28.75
2024-01-28T04:46:17.301Z,28.25
2024-01-28T04:48:47.659Z,27.00
2024-01-28T04:51:18.003Z,25.75
2024-01-28T04:53:48.197Z,26.75
2024-01-28T04:56:18.432Z,26.00
2024-01-28T04:58:48.536Z,24.75
2024-01-28T05:01:19.278Z,21.75
2024-01-28T05:03:49.635Z,25.50
2024-01-28T05:06:20.096Z,23.00
2024-01-28T05:08:50.505Z,24.25
2024-01-28T05:11:20.770Z,25.00
2024-01-28T05:13:50.836Z,12.50
2024-01-28T05:16:21.013Z,24.50
2024-01-28T05:18:51.643Z,19.50
2024-01-28T05:21:22.072Z,30.25
2024-01-28T05:23:52.253Z,25.00
2024-01-28T05:26:22.692Z,22.75
2024-01-28T05:28:52.777Z,26.25
2024-01-28T05:31:22.838Z,21.75
2024-01-28T05:33:53.203Z,31.25
2024-01-28T05:36:23.883Z,21.75
2024-01-28T05:38:54.224Z,19.75
2024-01-28T05:41:24.703Z,20.50
2024-01-28T05:43:54.862Z,24.50
2024-01-28T05:46:25.075Z,23.25
2024-01-28T05:48:55.385Z,25.00
2024-01-28T05:51:25.653Z,28.00
2024-01-28T05:54:01.639Z,33.25
2024-01-28T05:56:33.812Z,23.00
2024-01-28T05:59:04.755Z,23.50
2024-01-28T06:01:34.932Z,31.25
2024-01-28T06:04:05.388Z,26.25
2024-01-28T06:06:35.773Z,23.75
2024-01-28T06:09:06.174Z,33.25
2024-01-28T06:11:36.415Z,32.25
2024-01-28T06:14:06.528Z,32.00
2024-01-28T06:16:36.688Z,23.75
2024-01-28T06:19:06.968Z,22.50
2024-01-28T06:21:37.336Z,33.00
2024-01-28T06:24:07.804Z,34.75
2024-01-28T06:26:37.985Z,28.75
2024-01-28T06:29:08.296Z,30.50
2024-01-28T06:31:38.481Z,24.75
2024-01-28T06:34:08.679Z,29.75
2024-01-28T06:36:38.950Z,21.75
2024-01-28T06:39:09.364Z,29.25
2024-01-28T06:41:39.576Z,19.50
2024-01-28T06:44:12.516Z,31.25
2024-01-28T06:46:42.700Z,21.00
2024-01-28T06:49:15.881Z,17.25
2024-01-28T06:51:44.844Z,26.50
2024-01-28T06:54:15.307Z,29.75
2024-01-28T06:56:45.551Z,29.75
2024-01-28T06:59:16.377Z,46.00
2024-01-28T07:01:46.953Z,26.25
2024-01-28T07:04:17.171Z,34.00
2024-01-28T07:06:47.677Z,45.25
2024-01-28T07:09:17.942Z,41.75
2024-01-28T07:11:48.185Z,48.00
2024-01-28T07:14:18.569Z,59.50
2024-01-28T07:16:49.120Z,45.25
2024-01-28T07:19:19.435Z,44.75
2024-01-28T07:21:51.045Z,48.50
2024-01-28T07:24:21.544Z,42.00
2024-01-28T07:26:51.985Z,37.75
2024-01-28T07:29:22.167Z,44.75
2024-01-28T07:31:54.843Z,39.25
2024-01-28T07:34:39.861Z,43.50
2024-01-28T07:37:11.518Z,34.25
2024-01-28T07:39:43.224Z,43.75
2024-01-28T07:42:13.589Z,45.25
2024-01-28T07:44:46.683Z,53.50
2024-01-28T07:47:20.017Z,48.50
2024-01-28T07:49:53.360Z,64.25
2024-01-28T07:55:34.458Z,42.25
2024-01-28T07:58:04.904Z,33.60
2024-01-28T08:00:35.393Z,32.25
2024-01-28T08:03:05.996Z,40.75
2024-01-28T08:05:38.144Z,39.00
2024-01-28T08:08:08.753Z,35.25
2024-01-28T08:10:40.999Z,37.25
2024-01-28T08:13:11.406Z,40.00
2024-01-28T08:15:44.670Z,34.00
2024-01-28T09:58:46.574Z,63.75
2024-01-28T10:01:16.813Z,55.25
2024-01-28T10:03:47.802Z,64.50
2024-01-28T10:06:18.271Z,62.50
2024-01-28T10:08:48.917Z,56.75
2024-01-28T10:11:46.919Z,51.00
2024-01-28T10:14:17.231Z,60.00
2024-01-28T10:16:48.682Z,63.50
2024-01-28T10:19:18.925Z,50.75
2024-01-28T10:21:49.584Z,40.75
2024-01-28T10:24:23.721Z,47.00
2024-01-28T10:26:55.466Z,49.75
2024-01-28T10:29:37.935Z,60.50
2024-01-28T10:32:08.308Z,63.75
2024-01-28T10:34:40.062Z,54.50
2024-01-28T10:37:12.471Z,48.75
2024-01-28T10:39:44.789Z,44.50
2024-01-28T10:42:17.910Z,46.75
2024-01-28T10:45:08.755Z,54.50
2024-01-28T10:47:47.949Z,44.25
2024-01-28T10:50:20.718Z,52.50
2024-01-28T10:52:54.680Z,44.50
2024-01-28T10:55:27.907Z,39.75
2024-01-28T10:58:02.571Z,63.50
2024-01-28T11:00:33.438Z,60.25
2024-01-28T11:03:05.784Z,63.25
2024-01-28T11:05:39.442Z,53.25
2024-01-28T11:11:01.512Z,166.60
2024-01-28T11:13:34.025Z,55.00
2024-01-28T11:16:10.674Z,45.00
2024-01-28T11:18:41.579Z,45.50
2024-01-28T11:21:13.587Z,38.50
2024-01-28T11:23:50.935Z,52.00
2024-01-28T11:26:23.840Z,44.25
2024-01-28T11:28:58.366Z,94.25
2024-01-28T11:31:35.756Z,58.50
2024-01-28T11:34:19.931Z,52.50
2024-01-28T11:36:54.960Z,62.00
2024-01-28T11:39:40.547Z,57.75
2024-01-28T11:42:11.885Z,40.50
2024-01-28T11:44:49.827Z,45.75
2024-01-28T11:47:23.411Z,57.75
2024-01-28T11:49:54.521Z,56.75
2024-01-28T11:52:25.178Z,50.50
2024-01-28T11:54:55.515Z,36.50
2024-01-28T11:57:26.178Z,50.25
2024-01-28T11:59:56.571Z,41.25
2024-01-28T12:02:27.997Z,50.50
2024-01-28T12:04:58.590Z,50.00
2024-01-28T12:07:30.659Z,60.50
2024-01-28T12:10:13.243Z,43.25
2024-01-28T12:12:53.384Z,75.50
2024-01-28T12:15:25.745Z,65.75
2024-01-28T12:18:00.509Z,60.50
2024-01-28T12:20:32.828Z,53.00
2024-01-28T12:23:03.324Z,58.00
2024-01-28T12:25:57.485Z,43.75
2024-01-28T12:28:40.116Z,43.75
2024-01-28T12:31:21.656Z,40.00
2024-01-28T12:33:52.581Z,70.25
2024-01-28T12:36:29.224Z,45.75
2024-01-28T12:39:01.386Z,41.25
2024-01-28T12:41:46.085Z,58.25
2024-01-28T12:44:16.516Z,44.75
2024-01-28T12:46:54.086Z,42.25
2024-01-28T12:49:24.530Z,47.50
2024-01-28T12:52:09.808Z,55.25
2024-01-28T12:54:45.689Z,46.50
2024-01-28T13:05:57.516Z,35.75
2024-01-28T13:08:27.832Z,36.00
2024-01-28T13:11:02.748Z,34.75
2024-01-28T13:13:46.738Z,27.00
2024-01-28T13:16:19.576Z,45.00
2024-01-28T13:18:50.475Z,34.75
2024-01-28T13:21:22.285Z,39.25
2024-01-28T13:23:52.650Z,47.75
2024-01-28T13:26:23.280Z,47.75
2024-01-28T13:28:53.617Z,51.75
2024-01-28T13:31:29.296Z,46.50
2024-01-28T13:33:59.513Z,48.25
2024-01-28T13:36:30.162Z,50.25
2024-01-28T13:39:01.096Z,77.25
2024-01-28T13:41:35.227Z,75.75
2024-01-28T13:44:08.347Z,38.50
2024-01-28T13:46:39.145Z,57.25
2024-01-28T13:49:09.692Z,47.00
2024-01-28T13:52:01.278Z,42.00
2024-01-28T13:54:32.392Z,45.75
2024-01-28T13:57:02.989Z,49.75
2024-01-28T13:59:33.950Z,40.75
2024-01-28T14:02:04.350Z,51.25
2024-01-28T14:04:34.996Z,52.50
2024-01-28T14:07:05.778Z,49.75
2024-01-28T14:09:36.029Z,50.25
2024-01-28T14:12:06.811Z,45.75
2024-01-28T14:14:37.261Z,49.75
2024-01-28T14:17:10.431Z,43.75
2024-01-28T14:19:41.077Z,44.25
2024-01-28T14:22:11.479Z,39.00
2024-01-28T14:24:42.096Z,45.75
2024-01-28T14:27:12.559Z,42.25
2024-01-28T14:29:48.814Z,40.50
2024-01-28T14:32:21.325Z,53.00
2024-01-28T14:34:53.431Z,51.75
2024-01-28T14:37:27.804Z,58.00
2024-01-28T14:39:58.581Z,49.25
2024-01-28T14:42:34.270Z,34.25
2024-01-28T14:45:11.294Z,42.25
2024-01-28T14:50:39.832Z,51.25
2024-01-28T14:53:12.096Z,44.25
2024-01-28T14:55:48.388Z,38.50
2024-01-28T14:58:20.269Z,31.50
2024-01-28T15:00:51.024Z,38.00
2024-01-28T15:03:21.849Z,46.25
2024-01-28T15:05:53.085Z,42.00
2024-01-28T15:08:23.601Z,39.25
2024-01-28T15:10:58.412Z,41.50
2024-01-28T15:13:29.384Z,37.00
2024-01-28T15:16:30.225Z,50.25
2024-01-28T15:19:17.289Z,41.25
2024-01-28T15:22:07.895Z,44.50
2024-01-28T15:24:27.799Z,39.75
2024-01-28T15:27:00.564Z,41.00
2024-01-28T15:29:47.842Z,45.50
2024-01-28T15:32:24.355Z,43.75
2024-01-28T15:35:08.711Z,104.75
2024-01-28T15:37:40.185Z,64.25
2024-01-28T15:40:36.199Z,51.00
2024-01-28T15:43:09.683Z,58.50
2024-01-28T15:45:43.092Z,57.75
2024-01-28T15:48:23.090Z,57.00
2024-01-28T15:50:57.428Z,46.75
2024-01-28T15:53:31.144Z,52.50
2024-01-28T15:56:10.182Z,60.25
2024-01-28T15:58:40.802Z,59.75
2024-01-28T16:01:11.528Z,42.75
2024-01-28T16:03:46.367Z,53.25
2024-01-28T16:06:31.989Z,55.50
2024-01-28T16:09:02.540Z,48.50
2024-01-28T16:11:33.508Z,59.25
2024-01-28T16:14:09.048Z,47.25
2024-01-28T16:16:41.745Z,48.50
2024-01-28T16:19:15.135Z,41.25
2024-01-28T16:21:46.005Z,39.00
2024-01-28T16:24:18.467Z,32.00
2024-01-28T16:26:54.260Z,42.00
2024-01-28T16:29:36.932Z,33.50
2024-01-28T16:32:24.124Z,42.25
2024-01-28T16:35:08.169Z,46.00
2024-01-28T16:37:33.983Z,43.25
2024-01-28T16:40:07.177Z,45.25
2024-01-28T16:42:53.220Z,36.00
2024-01-28T16:45:26.548Z,47.75
2024-01-28T16:48:03.225Z,39.00
2024-01-28T16:50:35.556Z,76.50
2024-01-28T16:53:16.185Z,69.75
2024-01-28T16:55:51.052Z,47.50
2024-01-28T16:58:29.465Z,66.00
2024-01-28T17:01:01.110Z,44.75
2024-01-28T17:03:54.327Z,31.75
2024-01-28T17:06:27.973Z,44.50
2024-01-28T17:09:30.353Z,47.75
2024-01-28T17:12:02.271Z,45.25
2024-01-28T17:14:38.865Z,35.25
2024-01-28T17:17:21.846Z,48.25
2024-01-28T17:20:12.637Z,57.50
2024-01-28T17:22:43.121Z,40.25
2024-01-28T17:25:22.607Z,43.75
2024-01-28T17:27:55.669Z,49.75
2024-01-28T17:30:30.160Z,47.00
2024-01-28T17:33:00.726Z,49.75
2024-01-28T17:35:34.059Z,53.75
2024-01-28T17:38:04.583Z,66.50
2024-01-28T17:40:37.869Z,50.00
2024-01-28T17:43:08.331Z,50.50
2024-01-28T17:45:40.354Z,43.25
2024-01-28T17:48:13.608Z,33.00
2024-01-28T17:50:44.472Z,47.75
2024-01-28T17:53:19.130Z,31.50
2024-01-28T17:55:53.077Z,58.25
2024-01-28T17:58:44.262Z,43.25
2024-01-28T18:01:14.650Z,48.75
2024-01-28T18:03:49.472Z,47.00
2024-01-28T18:06:21.206Z,159.00
2024-01-28T18:08:52.901Z,35.50
2024-01-28T18:11:29.133Z,54.25
2024-01-28T18:14:05.136Z,42.50
2024-01-28T18:16:37.892Z,49.50
2024-01-28T18:19:17.426Z,45.00
2024-01-28T18:21:50.688Z,41.75
2024-01-28T18:24:21.333Z,51.00
2024-01-28T18:26:53.493Z,43.25
2024-01-28T18:29:45.654Z,42.00
2024-01-28T18:32:24.084Z,42.50
2024-01-28T18:35:01.330Z,48.00
2024-01-28T18:37:38.660Z,50.75
2024-01-28T18:40:17.962Z,40.00
2024-01-28T18:42:50.080Z,55.00
2024-01-28T18:45:23.931Z,50.00
2024-01-28T18:47:56.003Z,55.00
2024-01-28T18:50:45.409Z,55.50
2024-01-28T18:53:06.323Z,60.50
2024-01-28T18:58:40.177Z,59.50
2024-01-28T19:01:21.983Z,49.25
2024-01-28T19:03:53.287Z,47.50
2024-01-28T19:06:26.395Z,54.75
2024-01-28T19:08:59.317Z,49.75
2024-01-28T19:11:31.198Z,42.25
2024-01-28T19:14:01.576Z,43.75
2024-01-28T19:16:37.554Z,42.25
2024-01-28T19:19:13.259Z,34.25
2024-01-28T19:21:46.219Z,40.00
2024-01-28T19:24:17.103Z,58.50
2024-01-28T19:26:50.192Z,50.75
2024-01-28T19:29:21.272Z,37.00
2024-01-28T19:31:54.664Z,37.75
2024-01-28T19:34:24.893Z,37.75
2024-01-28T19:36:56.704Z,44.50
2024-01-28T19:39:28.260Z,42.75
2024-01-28T19:42:07.007Z,42.50
2024-01-28T19:44:41.263Z,40.50
2024-01-28T19:47:13.083Z,25.00
2024-01-28T19:49:43.713Z,40.75
2024-01-28T19:52:14.150Z,39.75
2024-01-28T19:54:45.405Z,41.75
2024-01-28T19:57:15.635Z,38.00
2024-01-28T19:59:46.032Z,47.25
2024-01-28T20:02:18.544Z,39.00
2024-01-28T20:04:55.435Z,40.00
2024-01-28T20:07:24.542Z,30.25
2024-01-28T20:10:08.750Z,36.25
2024-01-28T20:12:48.083Z,35.25
2024-01-28T20:15:25.487Z,36.75
2024-01-28T20:17:54.590Z,36.00
2024-01-28T20:20:39.027Z,42.25
2024-01-28T20:23:02.576Z,36.00
2024-01-28T20:25:35.858Z,30.00
2024-01-28T20:28:06.291Z,32.25
2024-01-28T20:30:38.194Z,35.00
2024-01-28T20:33:08.702Z,39.25
2024-01-28T20:35:41.982Z,37.75
2024-01-28T20:38:12.491Z,34.00
2024-01-28T20:40:44.142Z,45.50
2024-01-28T20:43:14.843Z,24.75
2024-01-28T20:45:45.048Z,35.50
2024-01-28T20:48:16.166Z,32.25
2024-01-28T20:50:46.494Z,17.50
2024-01-28T20:53:18.254Z,35.25
2024-01-28T20:55:50.051Z,41.50
2024-01-28T20:58:20.412Z,30.50
2024-01-28T21:00:51.003Z,30.50
2024-01-28T21:03:21.475Z,34.50
2024-01-28T21:05:52.005Z,29.50
2024-01-28T21:08:22.118Z,30.75
2024-01-28T21:10:55.652Z,39.00
2024-01-28T21:13:26.037Z,31.75
2024-01-28T21:15:56.496Z,38.00
2024-01-28T21:18:30.121Z,30.00
2024-01-28T21:21:00.754Z,27.50
2024-01-28T21:23:31.270Z,40.00
2024-01-28T21:26:02.058Z,45.75
2024-01-28T21:28:34.064Z,34.25
2024-01-28T21:31:07.232Z,40.25
2024-01-28T21:33:37.465Z,39.75
2024-01-28T21:36:10.101Z,36.00
2024-01-28T21:38:40.243Z,36.00
2024-01-28T21:41:10.658Z,52.00
2024-01-28T21:43:43.376Z,35.75
2024-01-28T21:46:14.156Z,49.00
2024-01-28T21:48:44.377Z,41.75
2024-01-28T21:51:14.539Z,42.25
2024-01-28T21:53:44.889Z,39.50
2024-01-28T21:56:15.328Z,43.75
2024-01-28T21:58:45.584Z,36.75
2024-01-28T22:01:15.761Z,37.00
2024-01-28T22:03:46.122Z,34.00
2024-01-28T22:06:16.284Z,32.25
2024-01-28T22:08:47.985Z,40.25
2024-01-28T22:11:19.420Z,41.50
2024-01-28T22:13:49.568Z,38.50
2024-01-28T22:16:19.978Z,42.00
2024-01-28T22:18:50.435Z,38.50
2024-01-28T22:21:20.779Z,29.00
2024-01-28T22:23:51.335Z,45.00
2024-01-28T22:26:21.495Z,39.75
2024-01-28T22:28:51.820Z,44.75
2024-01-28T22:31:22.091Z,44.25
2024-01-28T22:33:52.546Z,44.50
2024-01-28T22:36:23.150Z,47.00
2024-01-28T22:38:53.534Z,37.75
2024-01-28T22:41:23.764Z,45.50
2024-01-28T22:43:54.028Z,39.50
2024-01-28T22:46:24.300Z,41.75
2024-01-28T22:48:54.517Z,47.75
2024-01-28T22:51:24.738Z,46.75
2024-01-28T22:53:55.040Z,25.00
2024-01-28T22:56:25.292Z,31.00
2024-01-28T22:58:55.378Z,37.00
2024-01-28T23:01:25.703Z,32.75
2024-01-28T23:03:57.328Z,37.50
2024-01-28T23:06:27.663Z,36.75
2024-01-28T23:08:57.731Z,41.75
2024-01-28T23:11:28.044Z,45.75
2024-01-28T23:13:58.314Z,46.50
2024-01-28T23:16:28.404Z,39.00
2024-01-28T23:18:59.046Z,38.75
2024-01-28T23:21:29.495Z,38.50
2024-01-28T23:24:00.501Z,37.75
2024-01-28T23:26:30.838Z,39.75
2024-01-28T23:29:02.217Z,38.75
2024-01-28T23:31:32.450Z,31.25
2024-01-28T23:34:03.283Z,33.25
2024-01-28T23:36:34.479Z,43.50
2024-01-28T23:39:04.760Z,46.50
2024-01-28T23:41:39.507Z,44.00
2024-01-28T23:44:10.163Z,50.00
2024-01-28T23:47:01.047Z,58.50
2024-01-28T23:49:32.478Z,59.25
2024-01-28T23:52:03.100Z,43.25
2024-01-28T23:54:33.729Z,59.00
2024-01-28T23:57:04.239Z,45.25
2024-01-28T23:59:34.590Z,50.25
